sensor_id;sensor_type;location;lat;lon;timestamp;P1;durP1;ratioP1;P2;durP2;ratioP2
58518;SDS011;44310;48.106;12.008;2022-12-10T00:01:22;17.80;;;7.15;;
58518;SDS011;44310;48.106;12.008;2022-12-10T00:03:51;14.53;;;6.80;;
58518;SDS011;44310;48.106;12.008;2022-12-10T00:06:19;14.43;;;7.05;;
58518;SDS011;44310;48.106;12.008;2022-12-10T00:08:48;15.73;;;6.70;;
58518;SDS011;44310;48.106;12.008;2022-12-10T00:11:17;12.43;;;6.13;;
58518;SDS011;44310;48.106;12.008;2022-12-10T00:13:45;19.00;;;7.32;;
58518;SDS011;44310;48.106;12.008;2022-12-10T00:16:13;17.70;;;7.00;;
58518;SDS011;44310;48.106;12.008;2022-12-10T00:18:42;16.03;;;7.30;;
58518;SDS011;44310;48.106;12.008;2022-12-10T00:21:11;14.40;;;7.18;;
58518;SDS011;44310;48.106;12.008;2022-12-10T00:23:39;18.08;;;7.00;;
58518;SDS011;44310;48.106;12.008;2022-12-10T00:26:11;13.75;;;6.53;;
58518;SDS011;44310;48.106;12.008;2022-12-10T00:28:49;19.27;;;7.03;;
58518;SDS011;44310;48.106;12.008;2022-12-10T00:31:19;9.60;;;6.53;;
58518;SDS011;44310;48.106;12.008;2022-12-10T00:33:48;11.70;;;6.35;;
58518;SDS011;44310;48.106;12.008;2022-12-10T00:38:45;11.13;;;6.22;;
58518;SDS011;44310;48.106;12.008;2022-12-10T00:41:13;10.65;;;6.13;;
58518;SDS011;44310;48.106;12.008;2022-12-10T00:43:41;11.52;;;6.30;;
58518;SDS011;44310;48.106;12.008;2022-12-10T00:46:09;11.55;;;6.40;;
58518;SDS011;44310;48.106;12.008;2022-12-10T00:48:36;9.63;;;5.80;;
58518;SDS011;44310;48.106;12.008;2022-12-10T00:51:08;6.57;;;5.63;;
58518;SDS011;44310;48.106;12.008;2022-12-10T00:53:37;6.87;;;6.10;;
58518;SDS011;44310;48.106;12.008;2022-12-10T00:56:07;6.50;;;5.90;;
58518;SDS011;44310;48.106;12.008;2022-12-10T00:58:36;8.05;;;6.00;;
58518;SDS011;44310;48.106;12.008;2022-12-10T01:01:07;7.32;;;6.00;;
58518;SDS011;44310;48.106;12.008;2022-12-10T01:03:41;7.43;;;5.95;;
58518;SDS011;44310;48.106;12.008;2022-12-10T01:06:09;8.80;;;5.80;;
58518;SDS011;44310;48.106;12.008;2022-12-10T01:08:48;12.02;;;6.15;;
58518;SDS011;44310;48.106;12.008;2022-12-10T01:11:17;9.07;;;5.80;;
58518;SDS011;44310;48.106;12.008;2022-12-10T01:13:45;8.52;;;6.10;;
58518;SDS011;44310;48.106;12.008;2022-12-10T01:16:14;16.55;;;7.30;;
58518;SDS011;44310;48.106;12.008;2022-12-10T01:18:43;22.13;;;8.43;;
58518;SDS011;44310;48.106;12.008;2022-12-10T01:21:12;23.40;;;8.32;;
58518;SDS011;44310;48.106;12.008;2022-12-10T01:23:45;18.10;;;8.23;;
58518;SDS011;44310;48.106;12.008;2022-12-10T01:26:14;12.45;;;6.78;;
58518;SDS011;44310;48.106;12.008;2022-12-10T01:28:44;17.67;;;7.82;;
58518;SDS011;44310;48.106;12.008;2022-12-10T01:31:16;16.98;;;7.80;;
58518;SDS011;44310;48.106;12.008;2022-12-10T01:33:48;10.32;;;6.47;;
58518;SDS011;44310;48.106;12.008;2022-12-10T01:36:16;9.50;;;6.00;;
58518;SDS011;44310;48.106;12.008;2022-12-10T01:38:48;9.23;;;6.65;;
58518;SDS011;44310;48.106;12.008;2022-12-10T01:41:18;10.70;;;6.35;;
58518;SDS011;44310;48.106;12.008;2022-12-10T01:43:56;7.97;;;6.00;;
58518;SDS011;44310;48.106;12.008;2022-12-10T01:46:26;8.15;;;5.88;;
58518;SDS011;44310;48.106;12.008;2022-12-10T01:48:55;10.10;;;6.05;;
58518;SDS011;44310;48.106;12.008;2022-12-10T01:51:24;9.82;;;5.93;;
58518;SDS011;44310;48.106;12.008;2022-12-10T01:53:52;9.13;;;6.00;;
58518;SDS011;44310;48.106;12.008;2022-12-10T01:56:20;6.93;;;6.00;;
58518;SDS011;44310;48.106;12.008;2022-12-10T01:58:48;31.95;;;10.38;;
58518;SDS011;44310;48.106;12.008;2022-12-10T02:01:26;12.98;;;7.10;;
58518;SDS011;44310;48.106;12.008;2022-12-10T02:07:08;28.53;;;8.63;;
58518;SDS011;44310;48.106;12.008;2022-12-10T02:12:44;15.43;;;7.15;;
58518;SDS011;44310;48.106;12.008;2022-12-10T02:15:19;23.33;;;7.93;;
58518;SDS011;44310;48.106;12.008;2022-12-10T02:17:51;30.80;;;9.63;;
58518;SDS011;44310;48.106;12.008;2022-12-10T02:22:56;16.13;;;7.00;;
58518;SDS011;44310;48.106;12.008;2022-12-10T02:25:30;14.65;;;7.28;;
58518;SDS011;44310;48.106;12.008;2022-12-10T02:28:12;11.15;;;6.55;;
58518;SDS011;44310;48.106;12.008;2022-12-10T02:31:14;12.03;;;6.50;;
58518;SDS011;44310;48.106;12.008;2022-12-10T02:33:47;10.23;;;6.38;;
58518;SDS011;44310;48.106;12.008;2022-12-10T02:36:18;16.00;;;7.43;;
58518;SDS011;44310;48.106;12.008;2022-12-10T02:38:46;16.08;;;7.57;;
58518;SDS011;44310;48.106;12.008;2022-12-10T02:41:18;12.37;;;6.70;;
58518;SDS011;44310;48.106;12.008;2022-12-10T02:43:51;13.18;;;6.60;;
58518;SDS011;44310;48.106;12.008;2022-12-10T02:46:20;9.45;;;6.47;;
58518;SDS011;44310;48.106;12.008;2022-12-10T02:48:51;9.55;;;6.30;;
58518;SDS011;44310;48.106;12.008;2022-12-10T02:51:19;13.63;;;7.20;;
58518;SDS011;44310;48.106;12.008;2022-12-10T02:53:46;9.30;;;6.57;;
58518;SDS011;44310;48.106;12.008;2022-12-10T02:58:49;15.85;;;7.18;;
58518;SDS011;44310;48.106;12.008;2022-12-10T03:04:19;15.10;;;7.43;;
58518;SDS011;44310;48.106;12.008;2022-12-10T03:07:18;26.48;;;9.27;;
58518;SDS011;44310;48.106;12.008;2022-12-10T03:10:02;24.88;;;7.88;;
58518;SDS011;44310;48.106;12.008;2022-12-10T03:12:47;24.02;;;9.02;;
58518;SDS011;44310;48.106;12.008;2022-12-10T03:15:16;34.95;;;9.57;;
58518;SDS011;44310;48.106;12.008;2022-12-10T03:17:46;22.47;;;7.63;;
58518;SDS011;44310;48.106;12.008;2022-12-10T03:20:14;19.38;;;8.20;;
58518;SDS011;44310;48.106;12.008;2022-12-10T03:22:44;19.52;;;7.68;;
58518;SDS011;44310;48.106;12.008;2022-12-10T03:25:13;18.40;;;7.65;;
58518;SDS011;44310;48.106;12.008;2022-12-10T03:27:45;17.47;;;7.20;;
58518;SDS011;44310;48.106;12.008;2022-12-10T03:30:16;19.00;;;7.82;;
58518;SDS011;44310;48.106;12.008;2022-12-10T03:32:43;16.15;;;7.30;;
58518;SDS011;44310;48.106;12.008;2022-12-10T03:35:12;15.32;;;7.22;;
58518;SDS011;44310;48.106;12.008;2022-12-10T03:37:41;14.80;;;7.00;;
58518;SDS011;44310;48.106;12.008;2022-12-10T03:40:08;12.88;;;6.43;;
58518;SDS011;44310;48.106;12.008;2022-12-10T03:42:38;8.70;;;6.03;;
58518;SDS011;44310;48.106;12.008;2022-12-10T03:45:06;11.88;;;6.28;;
58518;SDS011;44310;48.106;12.008;2022-12-10T03:47:34;8.07;;;6.03;;
58518;SDS011;44310;48.106;12.008;2022-12-10T03:50:02;8.38;;;5.95;;
58518;SDS011;44310;48.106;12.008;2022-12-10T03:52:29;8.25;;;6.20;;
58518;SDS011;44310;48.106;12.008;2022-12-10T03:54:57;7.47;;;5.80;;
58518;SDS011;44310;48.106;12.008;2022-12-10T03:57:24;8.93;;;5.88;;
58518;SDS011;44310;48.106;12.008;2022-12-10T03:59:51;6.97;;;5.22;;
58518;SDS011;44310;48.106;12.008;2022-12-10T04:02:18;7.57;;;5.55;;
58518;SDS011;44310;48.106;12.008;2022-12-10T04:04:45;8.07;;;5.88;;
58518;SDS011;44310;48.106;12.008;2022-12-10T04:07:12;5.88;;;5.38;;
58518;SDS011;44310;48.106;12.008;2022-12-10T04:09:39;11.27;;;6.20;;
58518;SDS011;44310;48.106;12.008;2022-12-10T04:12:07;6.82;;;5.72;;
58518;SDS011;44310;48.106;12.008;2022-12-10T04:14:34;7.45;;;5.60;;
58518;SDS011;44310;48.106;12.008;2022-12-10T04:17:20;8.70;;;5.72;;
58518;SDS011;44310;48.106;12.008;2022-12-10T04:19:47;6.45;;;5.45;;
58518;SDS011;44310;48.106;12.008;2022-12-10T04:22:14;6.50;;;5.80;;
58518;SDS011;44310;48.106;12.008;2022-12-10T04:25:00;7.68;;;5.70;;
58518;SDS011;44310;48.106;12.008;2022-12-10T04:27:46;20.13;;;7.60;;
58518;SDS011;44310;48.106;12.008;2022-12-10T04:30:13;10.77;;;6.10;;
58518;SDS011;44310;48.106;12.008;2022-12-10T04:32:41;11.88;;;6.80;;
58518;SDS011;44310;48.106;12.008;2022-12-10T04:35:08;7.70;;;6.05;;
58518;SDS011;44310;48.106;12.008;2022-12-10T04:37:36;6.70;;;5.53;;
58518;SDS011;44310;48.106;12.008;2022-12-10T04:40:04;6.78;;;5.63;;
58518;SDS011;44310;48.106;12.008;2022-12-10T04:42:32;6.50;;;5.30;;
58518;SDS011;44310;48.106;12.008;2022-12-10T04:44:59;5.63;;;5.13;;
58518;SDS011;44310;48.106;12.008;2022-12-10T04:47:26;7.00;;;5.65;;
58518;SDS011;44310;48.106;12.008;2022-12-10T04:49:53;9.77;;;5.63;;
58518;SDS011;44310;48.106;12.008;2022-12-10T04:52:20;8.20;;;5.55;;
58518;SDS011;44310;48.106;12.008;2022-12-10T04:54:48;6.10;;;5.33;;
58518;SDS011;44310;48.106;12.008;2022-12-10T04:57:15;7.70;;;5.03;;
58518;SDS011;44310;48.106;12.008;2022-12-10T04:59:42;8.10;;;5.32;;
58518;SDS011;44310;48.106;12.008;2022-12-10T05:02:09;7.60;;;5.60;;
58518;SDS011;44310;48.106;12.008;2022-12-10T05:04:37;9.23;;;5.37;;
58518;SDS011;44310;48.106;12.008;2022-12-10T05:07:04;8.88;;;5.60;;
58518;SDS011;44310;48.106;12.008;2022-12-10T05:09:31;11.35;;;5.78;;
58518;SDS011;44310;48.106;12.008;2022-12-10T05:11:58;13.93;;;6.88;;
58518;SDS011;44310;48.106;12.008;2022-12-10T05:14:25;18.60;;;7.65;;
58518;SDS011;44310;48.106;12.008;2022-12-10T05:16:52;13.55;;;6.60;;
58518;SDS011;44310;48.106;12.008;2022-12-10T05:19:19;15.93;;;6.45;;
58518;SDS011;44310;48.106;12.008;2022-12-10T05:21:48;17.75;;;7.80;;
58518;SDS011;44310;48.106;12.008;2022-12-10T05:24:34;17.70;;;7.10;;
58518;SDS011;44310;48.106;12.008;2022-12-10T05:27:02;12.07;;;6.63;;
58518;SDS011;44310;48.106;12.008;2022-12-10T05:29:29;20.85;;;7.55;;
58518;SDS011;44310;48.106;12.008;2022-12-10T05:31:58;17.60;;;7.07;;
58518;SDS011;44310;48.106;12.008;2022-12-10T05:34:25;24.55;;;8.23;;
58518;SDS011;44310;48.106;12.008;2022-12-10T05:36:52;11.82;;;6.50;;
58518;SDS011;44310;48.106;12.008;2022-12-10T05:39:19;9.02;;;5.97;;
58518;SDS011;44310;48.106;12.008;2022-12-10T05:41:46;11.10;;;6.38;;
58518;SDS011;44310;48.106;12.008;2022-12-10T05:44:14;9.88;;;5.80;;
58518;SDS011;44310;48.106;12.008;2022-12-10T05:46:41;8.15;;;6.03;;
58518;SDS011;44310;48.106;12.008;2022-12-10T05:49:08;17.20;;;7.43;;
58518;SDS011;44310;48.106;12.008;2022-12-10T05:51:36;12.40;;;6.57;;
58518;SDS011;44310;48.106;12.008;2022-12-10T05:54:04;15.77;;;6.80;;
58518;SDS011;44310;48.106;12.008;2022-12-10T05:56:32;17.88;;;7.38;;
58518;SDS011;44310;48.106;12.008;2022-12-10T05:59:01;14.07;;;7.25;;
58518;SDS011;44310;48.106;12.008;2022-12-10T06:01:31;18.38;;;7.65;;
58518;SDS011;44310;48.106;12.008;2022-12-10T06:04:00;11.02;;;6.47;;
58518;SDS011;44310;48.106;12.008;2022-12-10T06:06:31;13.32;;;6.60;;
58518;SDS011;44310;48.106;12.008;2022-12-10T06:09:01;10.52;;;6.55;;
58518;SDS011;44310;48.106;12.008;2022-12-10T06:11:29;8.95;;;6.10;;
58518;SDS011;44310;48.106;12.008;2022-12-10T06:13:56;10.73;;;6.18;;
58518;SDS011;44310;48.106;12.008;2022-12-10T06:16:25;8.82;;;5.32;;
58518;SDS011;44310;48.106;12.008;2022-12-10T06:18:53;10.80;;;5.88;;
58518;SDS011;44310;48.106;12.008;2022-12-10T06:21:21;8.13;;;5.77;;
58518;SDS011;44310;48.106;12.008;2022-12-10T06:23:49;9.90;;;5.70;;
58518;SDS011;44310;48.106;12.008;2022-12-10T06:26:22;8.07;;;5.10;;
58518;SDS011;44310;48.106;12.008;2022-12-10T06:28:50;8.05;;;5.10;;
58518;SDS011;44310;48.106;12.008;2022-12-10T06:31:19;8.18;;;5.25;;
58518;SDS011;44310;48.106;12.008;2022-12-10T06:33:46;12.38;;;5.50;;
58518;SDS011;44310;48.106;12.008;2022-12-10T06:36:14;33.55;;;10.40;;
58518;SDS011;44310;48.106;12.008;2022-12-10T06:38:43;15.45;;;6.40;;
58518;SDS011;44310;48.106;12.008;2022-12-10T06:41:11;13.77;;;6.20;;
58518;SDS011;44310;48.106;12.008;2022-12-10T06:43:41;15.40;;;7.10;;
58518;SDS011;44310;48.106;12.008;2022-12-10T06:46:12;10.70;;;5.77;;
58518;SDS011;44310;48.106;12.008;2022-12-10T06:48:41;17.38;;;7.10;;
58518;SDS011;44310;48.106;12.008;2022-12-10T06:51:09;26.73;;;9.35;;
58518;SDS011;44310;48.106;12.008;2022-12-10T06:53:38;23.15;;;8.95;;
58518;SDS011;44310;48.106;12.008;2022-12-10T06:56:05;23.85;;;8.07;;
58518;SDS011;44310;48.106;12.008;2022-12-10T06:58:33;23.15;;;7.82;;
58518;SDS011;44310;48.106;12.008;2022-12-10T07:01:05;18.98;;;8.07;;
58518;SDS011;44310;48.106;12.008;2022-12-10T07:03:37;18.77;;;7.53;;
58518;SDS011;44310;48.106;12.008;2022-12-10T07:06:06;21.33;;;8.30;;
58518;SDS011;44310;48.106;12.008;2022-12-10T07:08:35;26.35;;;8.73;;
58518;SDS011;44310;48.106;12.008;2022-12-10T07:11:03;24.25;;;7.75;;
58518;SDS011;44310;48.106;12.008;2022-12-10T07:13:32;17.23;;;7.57;;
58518;SDS011;44310;48.106;12.008;2022-12-10T07:15:59;16.77;;;6.85;;
58518;SDS011;44310;48.106;12.008;2022-12-10T07:18:26;12.10;;;6.30;;
58518;SDS011;44310;48.106;12.008;2022-12-10T07:20:54;11.38;;;6.00;;
58518;SDS011;44310;48.106;12.008;2022-12-10T07:23:21;12.10;;;6.80;;
58518;SDS011;44310;48.106;12.008;2022-12-10T07:25:48;9.38;;;6.38;;
58518;SDS011;44310;48.106;12.008;2022-12-10T07:28:15;11.20;;;5.95;;
58518;SDS011;44310;48.106;12.008;2022-12-10T07:30:42;9.35;;;6.15;;
58518;SDS011;44310;48.106;12.008;2022-12-10T07:33:09;7.50;;;5.78;;
58518;SDS011;44310;48.106;12.008;2022-12-10T07:35:39;8.93;;;6.10;;
58518;SDS011;44310;48.106;12.008;2022-12-10T07:38:14;9.82;;;6.13;;
58518;SDS011;44310;48.106;12.008;2022-12-10T07:40:41;14.83;;;7.17;;
58518;SDS011;44310;48.106;12.008;2022-12-10T07:43:08;17.10;;;6.90;;
58518;SDS011;44310;48.106;12.008;2022-12-10T07:45:35;10.30;;;6.53;;
58518;SDS011;44310;48.106;12.008;2022-12-10T07:48:02;8.17;;;5.70;;
58518;SDS011;44310;48.106;12.008;2022-12-10T07:50:29;6.93;;;6.20;;
58518;SDS011;44310;48.106;12.008;2022-12-10T07:52:56;8.68;;;5.97;;
58518;SDS011;44310;48.106;12.008;2022-12-10T07:55:23;10.57;;;6.20;;
58518;SDS011;44310;48.106;12.008;2022-12-10T07:57:51;12.15;;;6.88;;
58518;SDS011;44310;48.106;12.008;2022-12-10T08:00:18;12.15;;;6.63;;
58518;SDS011;44310;48.106;12.008;2022-12-10T08:02:45;23.27;;;8.45;;
58518;SDS011;44310;48.106;12.008;2022-12-10T08:05:12;14.15;;;6.72;;
58518;SDS011;44310;48.106;12.008;2022-12-10T08:07:39;10.80;;;6.20;;
58518;SDS011;44310;48.106;12.008;2022-12-10T08:10:07;23.55;;;7.32;;
58518;SDS011;44310;48.106;12.008;2022-12-10T08:12:35;12.93;;;7.18;;
58518;SDS011;44310;48.106;12.008;2022-12-10T08:15:02;13.77;;;7.15;;
58518;SDS011;44310;48.106;12.008;2022-12-10T08:17:29;11.40;;;6.75;;
58518;SDS011;44310;48.106;12.008;2022-12-10T08:19:56;16.45;;;6.88;;
58518;SDS011;44310;48.106;12.008;2022-12-10T08:22:23;16.52;;;7.38;;
58518;SDS011;44310;48.106;12.008;2022-12-10T08:24:50;13.55;;;6.97;;
58518;SDS011;44310;48.106;12.008;2022-12-10T08:27:17;63.83;;;15.40;;
58518;SDS011;44310;48.106;12.008;2022-12-10T08:29:44;44.78;;;11.82;;
58518;SDS011;44310;48.106;12.008;2022-12-10T08:32:11;33.03;;;9.73;;
58518;SDS011;44310;48.106;12.008;2022-12-10T08:34:38;27.40;;;9.87;;
58518;SDS011;44310;48.106;12.008;2022-12-10T08:37:06;42.50;;;12.05;;
58518;SDS011;44310;48.106;12.008;2022-12-10T08:39:38;12.32;;;7.10;;
58518;SDS011;44310;48.106;12.008;2022-12-10T08:42:06;16.83;;;7.22;;
58518;SDS011;44310;48.106;12.008;2022-12-10T08:44:33;34.72;;;10.32;;
58518;SDS011;44310;48.106;12.008;2022-12-10T08:47:00;37.75;;;11.27;;
58518;SDS011;44310;48.106;12.008;2022-12-10T08:49:27;57.50;;;13.98;;
58518;SDS011;44310;48.106;12.008;2022-12-10T08:51:54;28.60;;;10.00;;
58518;SDS011;44310;48.106;12.008;2022-12-10T08:54:22;33.40;;;10.77;;
58518;SDS011;44310;48.106;12.008;2022-12-10T08:56:49;29.77;;;9.93;;
58518;SDS011;44310;48.106;12.008;2022-12-10T08:59:16;29.55;;;8.70;;
58518;SDS011;44310;48.106;12.008;2022-12-10T09:01:43;21.95;;;8.52;;
58518;SDS011;44310;48.106;12.008;2022-12-10T09:04:10;17.65;;;7.75;;
58518;SDS011;44310;48.106;12.008;2022-12-10T09:06:39;17.03;;;7.20;;
58518;SDS011;44310;48.106;12.008;2022-12-10T09:09:06;16.17;;;7.68;;
58518;SDS011;44310;48.106;12.008;2022-12-10T09:11:33;15.88;;;7.35;;
58518;SDS011;44310;48.106;12.008;2022-12-10T09:14:01;14.07;;;6.93;;
58518;SDS011;44310;48.106;12.008;2022-12-10T09:16:29;15.73;;;7.05;;
58518;SDS011;44310;48.106;12.008;2022-12-10T09:19:01;15.75;;;7.40;;
58518;SDS011;44310;48.106;12.008;2022-12-10T09:21:30;20.38;;;7.45;;
58518;SDS011;44310;48.106;12.008;2022-12-10T09:23:58;15.70;;;6.57;;
58518;SDS011;44310;48.106;12.008;2022-12-10T09:26:25;12.45;;;7.00;;
58518;SDS011;44310;48.106;12.008;2022-12-10T09:28:53;26.30;;;7.88;;
58518;SDS011;44310;48.106;12.008;2022-12-10T09:31:21;20.80;;;7.90;;
58518;SDS011;44310;48.106;12.008;2022-12-10T09:33:49;19.40;;;7.45;;
58518;SDS011;44310;48.106;12.008;2022-12-10T09:36:18;20.73;;;6.80;;
58518;SDS011;44310;48.106;12.008;2022-12-10T09:38:47;22.08;;;7.43;;
58518;SDS011;44310;48.106;12.008;2022-12-10T09:41:29;19.17;;;7.18;;
58518;SDS011;44310;48.106;12.008;2022-12-10T09:44:12;18.25;;;7.25;;
58518;SDS011;44310;48.106;12.008;2022-12-10T09:51:48;13.30;;;6.37;;
58518;SDS011;44310;48.106;12.008;2022-12-10T09:56:50;14.20;;;6.70;;
58518;SDS011;44310;48.106;12.008;2022-12-10T09:59:24;14.75;;;6.20;;
58518;SDS011;44310;48.106;12.008;2022-12-10T10:02:11;11.90;;;6.03;;
58518;SDS011;44310;48.106;12.008;2022-12-10T10:04:50;16.37;;;6.30;;
58518;SDS011;44310;48.106;12.008;2022-12-10T10:07:21;14.60;;;6.27;;
58518;SDS011;44310;48.106;12.008;2022-12-10T10:09:54;13.43;;;6.50;;
58518;SDS011;44310;48.106;12.008;2022-12-10T10:12:27;15.88;;;5.97;;
58518;SDS011;44310;48.106;12.008;2022-12-10T10:14:56;23.45;;;7.38;;
58518;SDS011;44310;48.106;12.008;2022-12-10T10:17:27;22.83;;;8.00;;
58518;SDS011;44310;48.106;12.008;2022-12-10T10:20:01;15.93;;;7.18;;
58518;SDS011;44310;48.106;12.008;2022-12-10T10:22:29;18.75;;;7.18;;
58518;SDS011;44310;48.106;12.008;2022-12-10T10:24:56;24.25;;;6.85;;
58518;SDS011;44310;48.106;12.008;2022-12-10T10:27:26;14.85;;;6.95;;
58518;SDS011;44310;48.106;12.008;2022-12-10T10:29:57;12.43;;;6.00;;
58518;SDS011;44310;48.106;12.008;2022-12-10T10:32:28;11.05;;;5.78;;
58518;SDS011;44310;48.106;12.008;2022-12-10T10:35:21;11.00;;;5.82;;
58518;SDS011;44310;48.106;12.008;2022-12-10T10:37:51;9.32;;;5.75;;
58518;SDS011;44310;48.106;12.008;2022-12-10T10:40:25;16.60;;;6.47;;
58518;SDS011;44310;48.106;12.008;2022-12-10T10:43:05;15.55;;;6.45;;
58518;SDS011;44310;48.106;12.008;2022-12-10T10:45:34;25.52;;;8.00;;
58518;SDS011;44310;48.106;12.008;2022-12-10T10:48:15;23.23;;;7.80;;
58518;SDS011;44310;48.106;12.008;2022-12-10T10:50:52;14.40;;;6.28;;
58518;SDS011;44310;48.106;12.008;2022-12-10T10:53:44;18.10;;;6.53;;
58518;SDS011;44310;48.106;12.008;2022-12-10T10:56:13;12.37;;;6.00;;
58518;SDS011;44310;48.106;12.008;2022-12-10T11:01:46;14.38;;;6.35;;
58518;SDS011;44310;48.106;12.008;2022-12-10T11:07:33;14.52;;;5.70;;
58518;SDS011;44310;48.106;12.008;2022-12-10T11:15:39;12.93;;;5.60;;
58518;SDS011;44310;48.106;12.008;2022-12-10T11:20:59;12.73;;;5.57;;
58518;SDS011;44310;48.106;12.008;2022-12-10T11:23:41;12.13;;;5.60;;
58518;SDS011;44310;48.106;12.008;2022-12-10T11:28:51;14.93;;;6.13;;
58518;SDS011;44310;48.106;12.008;2022-12-10T11:34:19;10.88;;;5.70;;
58518;SDS011;44310;48.106;12.008;2022-12-10T11:37:25;16.63;;;7.18;;
58518;SDS011;44310;48.106;12.008;2022-12-10T11:40:19;19.95;;;7.35;;
58518;SDS011;44310;48.106;12.008;2022-12-10T11:43:16;15.30;;;7.28;;
58518;SDS011;44310;48.106;12.008;2022-12-10T11:45:56;18.20;;;7.22;;
58518;SDS011;44310;48.106;12.008;2022-12-10T11:56:43;34.53;;;10.75;;
58518;SDS011;44310;48.106;12.008;2022-12-10T11:59:18;33.00;;;10.05;;
58518;SDS011;44310;48.106;12.008;2022-12-10T12:07:57;25.75;;;8.52;;
58518;SDS011;44310;48.106;12.008;2022-12-10T12:13:38;32.58;;;8.73;;
58518;SDS011;44310;48.106;12.008;2022-12-10T12:16:14;25.98;;;8.70;;
58518;SDS011;44310;48.106;12.008;2022-12-10T12:19:12;27.15;;;8.30;;
58518;SDS011;44310;48.106;12.008;2022-12-10T12:21:44;22.77;;;7.83;;
58518;SDS011;44310;48.106;12.008;2022-12-10T12:26:49;16.13;;;7.13;;
58518;SDS011;44310;48.106;12.008;2022-12-10T12:29:28;17.75;;;6.90;;
58518;SDS011;44310;48.106;12.008;2022-12-10T12:32:10;13.80;;;6.13;;
58518;SDS011;44310;48.106;12.008;2022-12-10T12:37:36;11.07;;;5.57;;
58518;SDS011;44310;48.106;12.008;2022-12-10T12:42:51;14.73;;;6.20;;
58518;SDS011;44310;48.106;12.008;2022-12-10T12:48:29;12.07;;;6.40;;
58518;SDS011;44310;48.106;12.008;2022-12-10T12:51:09;27.67;;;9.55;;
58518;SDS011;44310;48.106;12.008;2022-12-10T12:53:44;102.55;;;22.50;;
58518;SDS011;44310;48.106;12.008;2022-12-10T13:04:25;61.28;;;15.00;;
58518;SDS011;44310;48.106;12.008;2022-12-10T13:12:49;57.33;;;14.68;;
58518;SDS011;44310;48.106;12.008;2022-12-10T13:15:32;82.93;;;17.63;;
58518;SDS011;44310;48.106;12.008;2022-12-10T13:18:01;71.60;;;16.55;;
58518;SDS011;44310;48.106;12.008;2022-12-10T13:23:47;86.88;;;20.20;;
58518;SDS011;44310;48.106;12.008;2022-12-10T13:26:23;40.95;;;12.18;;
58518;SDS011;44310;48.106;12.008;2022-12-10T13:28:56;62.73;;;14.83;;
58518;SDS011;44310;48.106;12.008;2022-12-10T13:32:01;61.43;;;14.77;;
58518;SDS011;44310;48.106;12.008;2022-12-10T13:34:34;77.60;;;17.73;;
58518;SDS011;44310;48.106;12.008;2022-12-10T13:37:05;83.85;;;19.38;;
58518;SDS011;44310;48.106;12.008;2022-12-10T13:45:00;62.83;;;15.38;;
58518;SDS011;44310;48.106;12.008;2022-12-10T13:50:16;58.65;;;15.10;;
58518;SDS011;44310;48.106;12.008;2022-12-10T14:01:25;47.17;;;13.07;;
58518;SDS011;44310;48.106;12.008;2022-12-10T14:06:33;43.60;;;12.32;;
58518;SDS011;44310;48.106;12.008;2022-12-10T14:09:06;43.13;;;11.90;;
58518;SDS011;44310;48.106;12.008;2022-12-10T14:11:43;36.83;;;11.30;;
58518;SDS011;44310;48.106;12.008;2022-12-10T14:14:29;34.33;;;11.50;;
58518;SDS011;44310;48.106;12.008;2022-12-10T14:17:16;39.67;;;10.98;;
58518;SDS011;44310;48.106;12.008;2022-12-10T14:19:48;37.67;;;12.18;;
58518;SDS011;44310;48.106;12.008;2022-12-10T14:22:22;31.67;;;10.77;;
58518;SDS011;44310;48.106;12.008;2022-12-10T14:25:04;25.85;;;9.52;;
58518;SDS011;44310;48.106;12.008;2022-12-10T14:27:37;21.35;;;9.25;;
58518;SDS011;44310;48.106;12.008;2022-12-10T14:30:06;27.67;;;9.67;;
58518;SDS011;44310;48.106;12.008;2022-12-10T14:32:41;40.00;;;11.43;;
58518;SDS011;44310;48.106;12.008;2022-12-10T14:35:27;33.65;;;10.05;;
58518;SDS011;44310;48.106;12.008;2022-12-10T14:37:56;23.98;;;8.85;;
58518;SDS011;44310;48.106;12.008;2022-12-10T14:40:32;27.80;;;10.45;;
58518;SDS011;44310;48.106;12.008;2022-12-10T14:43:19;25.27;;;9.90;;
58518;SDS011;44310;48.106;12.008;2022-12-10T14:45:58;33.65;;;10.02;;
58518;SDS011;44310;48.106;12.008;2022-12-10T14:48:27;40.38;;;10.70;;
58518;SDS011;44310;48.106;12.008;2022-12-10T14:50:56;30.20;;;11.00;;
58518;SDS011;44310;48.106;12.008;2022-12-10T14:53:30;39.75;;;11.60;;
58518;SDS011;44310;48.106;12.008;2022-12-10T14:56:02;28.50;;;10.45;;
58518;SDS011;44310;48.106;12.008;2022-12-10T15:01:52;33.85;;;10.52;;
58518;SDS011;44310;48.106;12.008;2022-12-10T15:04:23;28.80;;;9.67;;
58518;SDS011;44310;48.106;12.008;2022-12-10T15:06:56;53.20;;;14.07;;
58518;SDS011;44310;48.106;12.008;2022-12-10T15:09:26;116.50;;;24.60;;
58518;SDS011;44310;48.106;12.008;2022-12-10T15:11:53;72.47;;;17.70;;
58518;SDS011;44310;48.106;12.008;2022-12-10T15:14:22;78.60;;;20.50;;
58518;SDS011;44310;48.106;12.008;2022-12-10T15:16:51;142.85;;;29.75;;
58518;SDS011;44310;48.106;12.008;2022-12-10T15:22:15;88.35;;;21.13;;
58518;SDS011;44310;48.106;12.008;2022-12-10T15:24:48;88.75;;;20.88;;
58518;SDS011;44310;48.106;12.008;2022-12-10T15:27:16;95.07;;;22.00;;
58518;SDS011;44310;48.106;12.008;2022-12-10T15:29:47;87.95;;;20.27;;
58518;SDS011;44310;48.106;12.008;2022-12-10T15:32:19;87.25;;;19.63;;
58518;SDS011;44310;48.106;12.008;2022-12-10T15:35:00;79.10;;;18.63;;
58518;SDS011;44310;48.106;12.008;2022-12-10T15:37:39;73.90;;;19.02;;
58518;SDS011;44310;48.106;12.008;2022-12-10T15:40:29;68.95;;;16.05;;
58518;SDS011;44310;48.106;12.008;2022-12-10T15:43:10;57.75;;;14.93;;
58518;SDS011;44310;48.106;12.008;2022-12-10T15:45:48;52.05;;;14.35;;
58518;SDS011;44310;48.106;12.008;2022-12-10T15:48:16;38.55;;;12.25;;
58518;SDS011;44310;48.106;12.008;2022-12-10T15:50:44;46.50;;;13.23;;
58518;SDS011;44310;48.106;12.008;2022-12-10T15:53:12;41.95;;;12.32;;
58518;SDS011;44310;48.106;12.008;2022-12-10T15:55:41;44.42;;;12.77;;
58518;SDS011;44310;48.106;12.008;2022-12-10T15:58:11;35.50;;;11.48;;
58518;SDS011;44310;48.106;12.008;2022-12-10T16:00:39;32.45;;;10.98;;
58518;SDS011;44310;48.106;12.008;2022-12-10T16:03:11;35.22;;;10.40;;
58518;SDS011;44310;48.106;12.008;2022-12-10T16:05:40;47.70;;;11.32;;
58518;SDS011;44310;48.106;12.008;2022-12-10T16:10:49;41.50;;;11.27;;
58518;SDS011;44310;48.106;12.008;2022-12-10T16:13:20;33.58;;;10.27;;
58518;SDS011;44310;48.106;12.008;2022-12-10T16:15:59;29.73;;;10.00;;
58518;SDS011;44310;48.106;12.008;2022-12-10T16:18:31;29.08;;;9.27;;
58518;SDS011;44310;48.106;12.008;2022-12-10T16:21:00;32.92;;;9.32;;
58518;SDS011;44310;48.106;12.008;2022-12-10T16:23:28;21.73;;;8.40;;
58518;SDS011;44310;48.106;12.008;2022-12-10T16:25:55;27.00;;;9.13;;
58518;SDS011;44310;48.106;12.008;2022-12-10T16:28:22;25.90;;;8.13;;
58518;SDS011;44310;48.106;12.008;2022-12-10T16:30:51;23.65;;;7.97;;
58518;SDS011;44310;48.106;12.008;2022-12-10T16:33:20;19.08;;;7.50;;
58518;SDS011;44310;48.106;12.008;2022-12-10T16:35:49;15.90;;;7.35;;
58518;SDS011;44310;48.106;12.008;2022-12-10T16:38:18;20.70;;;7.17;;
58518;SDS011;44310;48.106;12.008;2022-12-10T16:40:46;17.48;;;6.68;;
58518;SDS011;44310;48.106;12.008;2022-12-10T16:43:14;15.30;;;6.88;;